sensor_id;sensor_type;location;lat;lon;timestamp;temperature;humidity
11597;DHT22;5854;48.072;16.286;2023-12-07T00:01:48;2.80;91.10
11597;DHT22;5854;48.072;16.286;2023-12-07T00:04:17;2.80;91.50
11597;DHT22;5854;48.072;16.286;2023-12-07T00:06:44;2.80;89.70
11597;DHT22;5854;48.072;16.286;2023-12-07T00:09:11;2.70;88.70
11597;DHT22;5854;48.072;16.286;2023-12-07T00:11:39;2.70;89.70
11597;DHT22;5854;48.072;16.286;2023-12-07T00:14:07;2.80;92.00
11597;DHT22;5854;48.072;16.286;2023-12-07T00:16:34;2.70;89.00
11597;DHT22;5854;48.072;16.286;2023-12-07T00:19:01;2.70;89.50
11597;DHT22;5854;48.072;16.286;2023-12-07T00:21:30;2.70;91.30
11597;DHT22;5854;48.072;16.286;2023-12-07T00:23:57;2.70;91.00
11597;DHT22;5854;48.072;16.286;2023-12-07T00:26:24;2.70;90.80
11597;DHT22;5854;48.072;16.286;2023-12-07T00:28:52;2.70;88.40
11597;DHT22;5854;48.072;16.286;2023-12-07T00:31:19;2.70;92.40
11597;DHT22;5854;48.072;16.286;2023-12-07T00:33:47;2.70;91.50
11597;DHT22;5854;48.072;16.286;2023-12-07T00:36:14;2.70;92.10
11597;DHT22;5854;48.072;16.286;2023-12-07T00:38:43;2.70;90.20
11597;DHT22;5854;48.072;16.286;2023-12-07T00:41:11;2.60;91.30
11597;DHT22;5854;48.072;16.286;2023-12-07T00:43:38;2.70;91.00
11597;DHT22;5854;48.072;16.286;2023-12-07T00:46:07;2.80;92.50
11597;DHT22;5854;48.072;16.286;2023-12-07T00:48:34;2.70;88.70
11597;DHT22;5854;48.072;16.286;2023-12-07T00:51:02;2.60;89.00
11597;DHT22;5854;48.072;16.286;2023-12-07T00:53:31;2.70;91.50
11597;DHT22;5854;48.072;16.286;2023-12-07T00:56:02;2.70;90.20
11597;DHT22;5854;48.072;16.286;2023-12-07T00:58:30;2.60;89.10
11597;DHT22;5854;48.072;16.286;2023-12-07T01:00:58;2.60;89.50
11597;DHT22;5854;48.072;16.286;2023-12-07T01:03:25;2.60;91.10
11597;DHT22;5854;48.072;16.286;2023-12-07T01:05:53;2.70;90.30
11597;DHT22;5854;48.072;16.286;2023-12-07T01:08:20;2.70;90.30
11597;DHT22;5854;48.072;16.286;2023-12-07T01:10:48;2.70;89.60
11597;DHT22;5854;48.072;16.286;2023-12-07T01:13:17;2.70;90.30
11597;DHT22;5854;48.072;16.286;2023-12-07T01:15:45;2.80;90.10
11597;DHT22;5854;48.072;16.286;2023-12-07T01:18:13;2.70;85.60
11597;DHT22;5854;48.072;16.286;2023-12-07T01:20:41;2.70;87.30
11597;DHT22;5854;48.072;16.286;2023-12-07T01:23:08;2.80;87.40
11597;DHT22;5854;48.072;16.286;2023-12-07T01:25:36;2.80;88.80
11597;DHT22;5854;48.072;16.286;2023-12-07T01:28:05;2.70;86.40
11597;DHT22;5854;48.072;16.286;2023-12-07T01:30:36;2.70;87.40
11597;DHT22;5854;48.072;16.286;2023-12-07T01:33:08;2.80;89.80
11597;DHT22;5854;48.072;16.286;2023-12-07T01:35:36;2.70;86.00
11597;DHT22;5854;48.072;16.286;2023-12-07T01:38:03;2.70;86.70
11597;DHT22;5854;48.072;16.286;2023-12-07T01:40:31;2.90;89.90
11597;DHT22;5854;48.072;16.286;2023-12-07T01:42:58;2.80;86.20
11597;DHT22;5854;48.072;16.286;2023-12-07T01:45:26;2.80;86.30
11597;DHT22;5854;48.072;16.286;2023-12-07T01:47:56;2.80;83.70
11597;DHT22;5854;48.072;16.286;2023-12-07T01:50:25;2.80;85.30
11597;DHT22;5854;48.072;16.286;2023-12-07T01:52:57;2.80;87.10
11597;DHT22;5854;48.072;16.286;2023-12-07T01:55:29;2.80;85.70
11597;DHT22;5854;48.072;16.286;2023-12-07T01:57:59;2.80;85.20
11597;DHT22;5854;48.072;16.286;2023-12-07T02:00:26;2.80;88.60
11597;DHT22;5854;48.072;16.286;2023-12-07T02:02:56;2.90;87.60
11597;DHT22;5854;48.072;16.286;2023-12-07T02:05:26;2.80;86.50
11597;DHT22;5854;48.072;16.286;2023-12-07T02:07:58;2.70;86.60
11597;DHT22;5854;48.072;16.286;2023-12-07T02:10:25;2.70;85.20
11597;DHT22;5854;48.072;16.286;2023-12-07T02:12:53;2.70;88.20
11597;DHT22;5854;48.072;16.286;2023-12-07T02:15:21;2.80;88.20
11597;DHT22;5854;48.072;16.286;2023-12-07T02:17:54;2.80;87.40
11597;DHT22;5854;48.072;16.286;2023-12-07T02:20:29;2.70;87.30
11597;DHT22;5854;48.072;16.286;2023-12-07T02:23:01;2.70;86.30
11597;DHT22;5854;48.072;16.286;2023-12-07T02:25:36;2.80;87.50
11597;DHT22;5854;48.072;16.286;2023-12-07T02:28:12;2.80;86.90
11597;DHT22;5854;48.072;16.286;2023-12-07T02:30:39;2.70;86.90
11597;DHT22;5854;48.072;16.286;2023-12-07T02:33:10;2.80;87.60
11597;DHT22;5854;48.072;16.286;2023-12-07T02:35:40;2.80;89.80
11597;DHT22;5854;48.072;16.286;2023-12-07T02:38:10;2.70;88.10
11597;DHT22;5854;48.072;16.286;2023-12-07T02:40:43;2.70;87.20
11597;DHT22;5854;48.072;16.286;2023-12-07T02:43:21;2.70;83.40
11597;DHT22;5854;48.072;16.286;2023-12-07T02:45:49;2.70;87.10
11597;DHT22;5854;48.072;16.286;2023-12-07T02:48:20;2.70;89.70
11597;DHT22;5854;48.072;16.286;2023-12-07T02:50:48;2.70;86.80
11597;DHT22;5854;48.072;16.286;2023-12-07T02:53:15;2.70;88.60
11597;DHT22;5854;48.072;16.286;2023-12-07T02:55:43;2.60;85.20
11597;DHT22;5854;48.072;16.286;2023-12-07T02:58:11;2.70;84.60
11597;DHT22;5854;48.072;16.286;2023-12-07T03:00:39;2.70;88.00
11597;DHT22;5854;48.072;16.286;2023-12-07T03:03:07;2.80;89.90
11597;DHT22;5854;48.072;16.286;2023-12-07T03:05:34;2.70;88.70
11597;DHT22;5854;48.072;16.286;2023-12-07T03:08:01;2.60;85.90
11597;DHT22;5854;48.072;16.286;2023-12-07T03:10:29;2.70;88.60
11597;DHT22;5854;48.072;16.286;2023-12-07T03:12:56;2.70;88.60
11597;DHT22;5854;48.072;16.286;2023-12-07T03:15:23;2.70;89.50
11597;DHT22;5854;48.072;16.286;2023-12-07T03:17:56;2.70;89.20
11597;DHT22;5854;48.072;16.286;2023-12-07T03:20:23;2.70;87.90
11597;DHT22;5854;48.072;16.286;2023-12-07T03:22:50;2.70;86.40
11597;DHT22;5854;48.072;16.286;2023-12-07T03:25:18;2.70;84.50
11597;DHT22;5854;48.072;16.286;2023-12-07T03:27:45;2.70;86.30
11597;DHT22;5854;48.072;16.286;2023-12-07T03:30:13;2.70;84.90
11597;DHT22;5854;48.072;16.286;2023-12-07T03:32:40;2.70;89.50
11597;DHT22;5854;48.072;16.286;2023-12-07T03:35:09;2.70;87.80
11597;DHT22;5854;48.072;16.286;2023-12-07T03:37:37;2.70;88.00
11597;DHT22;5854;48.072;16.286;2023-12-07T03:40:05;2.70;87.60
11597;DHT22;5854;48.072;16.286;2023-12-07T03:42:39;2.70;87.00
11597;DHT22;5854;48.072;16.286;2023-12-07T03:45:07;2.70;90.20
11597;DHT22;5854;48.072;16.286;2023-12-07T03:47:35;2.70;85.00
11597;DHT22;5854;48.072;16.286;2023-12-07T03:50:03;2.70;86.40
11597;DHT22;5854;48.072;16.286;2023-12-07T03:52:32;2.60;87.30
11597;DHT22;5854;48.072;16.286;2023-12-07T03:54:59;2.70;86.50
11597;DHT22;5854;48.072;16.286;2023-12-07T03:57:26;2.70;86.80
11597;DHT22;5854;48.072;16.286;2023-12-07T03:59:54;2.70;85.00
11597;DHT22;5854;48.072;16.286;2023-12-07T04:02:21;2.70;84.70
11597;DHT22;5854;48.072;16.286;2023-12-07T04:04:49;2.80;86.60
11597;DHT22;5854;48.072;16.286;2023-12-07T04:07:16;2.80;87.50
11597;DHT22;5854;48.072;16.286;2023-12-07T04:09:45;2.80;89.40
11597;DHT22;5854;48.072;16.286;2023-12-07T04:12:15;2.80;86.10
11597;DHT22;5854;48.072;16.286;2023-12-07T04:14:42;2.70;86.20
11597;DHT22;5854;48.072;16.286;2023-12-07T04:17:10;2.80;89.50
11597;DHT22;5854;48.072;16.286;2023-12-07T04:19:37;2.70;85.00
11597;DHT22;5854;48.072;16.286;2023-12-07T04:22:04;2.80;84.30
11597;DHT22;5854;48.072;16.286;2023-12-07T04:24:32;2.70;86.40
11597;DHT22;5854;48.072;16.286;2023-12-07T04:27:00;2.70;86.50
11597;DHT22;5854;48.072;16.286;2023-12-07T04:29:28;2.70;82.30
11597;DHT22;5854;48.072;16.286;2023-12-07T04:31:55;2.70;84.10
11597;DHT22;5854;48.072;16.286;2023-12-07T04:34:23;2.70;85.10
11597;DHT22;5854;48.072;16.286;2023-12-07T04:36:50;2.80;87.70
11597;DHT22;5854;48.072;16.286;2023-12-07T04:39:18;2.80;83.00
11597;DHT22;5854;48.072;16.286;2023-12-07T04:41:45;2.80;84.70
11597;DHT22;5854;48.072;16.286;2023-12-07T04:44:14;2.70;87.60
11597;DHT22;5854;48.072;16.286;2023-12-07T04:46:42;2.70;86.80
11597;DHT22;5854;48.072;16.286;2023-12-07T04:49:10;2.80;84.70
11597;DHT22;5854;48.072;16.286;2023-12-07T04:51:37;2.70;84.70
11597;DHT22;5854;48.072;16.286;2023-12-07T04:54:05;2.80;88.20
11597;DHT22;5854;48.072;16.286;2023-12-07T04:56:32;2.70;86.70
11597;DHT22;5854;48.072;16.286;2023-12-07T04:58:59;2.70;87.40
11597;DHT22;5854;48.072;16.286;2023-12-07T05:01:28;2.70;85.20
11597;DHT22;5854;48.072;16.286;2023-12-07T05:03:55;2.60;83.50
11597;DHT22;5854;48.072;16.286;2023-12-07T05:06:22;2.60;86.10
11597;DHT22;5854;48.072;16.286;2023-12-07T05:08:50;2.50;84.10
11597;DHT22;5854;48.072;16.286;2023-12-07T05:11:17;2.60;86.60
11597;DHT22;5854;48.072;16.286;2023-12-07T05:13:45;2.70;86.70
11597;DHT22;5854;48.072;16.286;2023-12-07T05:16:13;2.70;87.90
11597;DHT22;5854;48.072;16.286;2023-12-07T05:18:42;2.70;86.60
11597;DHT22;5854;48.072;16.286;2023-12-07T05:21:09;2.70;85.50
11597;DHT22;5854;48.072;16.286;2023-12-07T05:23:37;2.80;88.30
11597;DHT22;5854;48.072;16.286;2023-12-07T05:26:04;2.70;87.00
11597;DHT22;5854;48.072;16.286;2023-12-07T05:28:33;2.70;89.20
11597;DHT22;5854;48.072;16.286;2023-12-07T05:31:02;2.60;85.50
11597;DHT22;5854;48.072;16.286;2023-12-07T05:33:30;2.60;84.70
11597;DHT22;5854;48.072;16.286;2023-12-07T05:35:58;2.60;87.20
11597;DHT22;5854;48.072;16.286;2023-12-07T05:38:26;2.70;87.10
11597;DHT22;5854;48.072;16.286;2023-12-07T05:40:53;2.70;87.10
11597;DHT22;5854;48.072;16.286;2023-12-07T05:43:21;2.80;87.90
11597;DHT22;5854;48.072;16.286;2023-12-07T05:45:48;2.70;87.50
11597;DHT22;5854;48.072;16.286;2023-12-07T05:48:15;2.70;86.20
11597;DHT22;5854;48.072;16.286;2023-12-07T05:50:42;2.80;85.40
11597;DHT22;5854;48.072;16.286;2023-12-07T05:53:11;2.80;84.80
11597;DHT22;5854;48.072;16.286;2023-12-07T05:55:39;2.70;84.50
11597;DHT22;5854;48.072;16.286;2023-12-07T05:58:06;2.70;87.90
11597;DHT22;5854;48.072;16.286;2023-12-07T06:00:33;2.70;82.50
11597;DHT22;5854;48.072;16.286;2023-12-07T06:03:01;2.70;84.70
11597;DHT22;5854;48.072;16.286;2023-12-07T06:05:28;2.70;86.10
11597;DHT22;5854;48.072;16.286;2023-12-07T06:07:55;2.70;84.40
11597;DHT22;5854;48.072;16.286;2023-12-07T06:10:24;2.70;87.10
11597;DHT22;5854;48.072;16.286;2023-12-07T06:12:52;2.70;85.50
11597;DHT22;5854;48.072;16.286;2023-12-07T06:15:24;2.70;89.40
11597;DHT22;5854;48.072;16.286;2023-12-07T06:17:51;2.70;87.10
11597;DHT22;5854;48.072;16.286;2023-12-07T06:20:19;2.70;86.50
11597;DHT22;5854;48.072;16.286;2023-12-07T06:22:46;2.70;85.30
11597;DHT22;5854;48.072;16.286;2023-12-07T06:25:13;2.60;80.00
11597;DHT22;5854;48.072;16.286;2023-12-07T06:27:43;2.60;80.90
11597;DHT22;5854;48.072;16.286;2023-12-07T06:30:11;2.60;83.20
11597;DHT22;5854;48.072;16.286;2023-12-07T06:32:38;2.70;84.30
11597;DHT22;5854;48.072;16.286;2023-12-07T06:35:06;2.60;81.20
11597;DHT22;5854;48.072;16.286;2023-12-07T06:37:34;2.70;84.80
11597;DHT22;5854;48.072;16.286;2023-12-07T06:40:02;2.60;82.40
11597;DHT22;5854;48.072;16.286;2023-12-07T06:42:32;2.70;86.00
11597;DHT22;5854;48.072;16.286;2023-12-07T06:45:04;2.70;86.40
11597;DHT22;5854;48.072;16.286;2023-12-07T06:47:38;2.60;80.30
11597;DHT22;5854;48.072;16.286;2023-12-07T06:50:08;2.60;81.10
11597;DHT22;5854;48.072;16.286;2023-12-07T06:52:36;2.60;78.70
11597;DHT22;5854;48.072;16.286;2023-12-07T06:55:04;2.60;81.60
11597;DHT22;5854;48.072;16.286;2023-12-07T06:57:32;2.60;85.90
11597;DHT22;5854;48.072;16.286;2023-12-07T07:00:01;2.70;82.00
11597;DHT22;5854;48.072;16.286;2023-12-07T07:02:36;2.60;81.60
11597;DHT22;5854;48.072;16.286;2023-12-07T07:05:04;2.60;78.50
11597;DHT22;5854;48.072;16.286;2023-12-07T07:07:32;2.60;80.30
11597;DHT22;5854;48.072;16.286;2023-12-07T07:09:59;2.70;80.10
11597;DHT22;5854;48.072;16.286;2023-12-07T07:12:26;2.80;85.40
11597;DHT22;5854;48.072;16.286;2023-12-07T07:14:55;2.80;79.20
11597;DHT22;5854;48.072;16.286;2023-12-07T07:17:23;2.80;81.40
11597;DHT22;5854;48.072;16.286;2023-12-07T07:19:50;2.70;80.10
11597;DHT22;5854;48.072;16.286;2023-12-07T07:22:18;2.80;83.80
11597;DHT22;5854;48.072;16.286;2023-12-07T07:24:45;2.90;86.20
11597;DHT22;5854;48.072;16.286;2023-12-07T07:27:12;2.90;83.90
11597;DHT22;5854;48.072;16.286;2023-12-07T07:29:40;2.90;82.50
11597;DHT22;5854;48.072;16.286;2023-12-07T07:32:07;2.80;78.40
11597;DHT22;5854;48.072;16.286;2023-12-07T07:34:36;2.80;77.50
11597;DHT22;5854;48.072;16.286;2023-12-07T07:37:03;2.80;74.70
11597;DHT22;5854;48.072;16.286;2023-12-07T07:39:32;2.90;77.50
11597;DHT22;5854;48.072;16.286;2023-12-07T07:42:00;2.80;77.20
11597;DHT22;5854;48.072;16.286;2023-12-07T07:44:28;2.90;81.10
11597;DHT22;5854;48.072;16.286;2023-12-07T07:46:56;2.80;78.20
11597;DHT22;5854;48.072;16.286;2023-12-07T07:49:23;3.00;86.60
11597;DHT22;5854;48.072;16.286;2023-12-07T07:51:51;2.90;83.00
11597;DHT22;5854;48.072;16.286;2023-12-07T07:54:19;2.90;82.20
11597;DHT22;5854;48.072;16.286;2023-12-07T07:56:46;2.80;77.60
11597;DHT22;5854;48.072;16.286;2023-12-07T07:59:13;2.80;78.10
11597;DHT22;5854;48.072;16.286;2023-12-07T08:01:41;2.80;79.10
11597;DHT22;5854;48.072;16.286;2023-12-07T08:04:09;3.00;85.20
11597;DHT22;5854;48.072;16.286;2023-12-07T08:06:37;2.80;79.20
11597;DHT22;5854;48.072;16.286;2023-12-07T08:09:07;2.80;77.40
11597;DHT22;5854;48.072;16.286;2023-12-07T08:11:35;2.90;81.30
11597;DHT22;5854;48.072;16.286;2023-12-07T08:14:02;2.90;80.20
11597;DHT22;5854;48.072;16.286;2023-12-07T08:16:30;2.90;81.60
11597;DHT22;5854;48.072;16.286;2023-12-07T08:18:57;2.90;79.90
11597;DHT22;5854;48.072;16.286;2023-12-07T08:21:24;3.00;85.00
11597;DHT22;5854;48.072;16.286;2023-12-07T08:23:52;3.00;81.30
11597;DHT22;5854;48.072;16.286;2023-12-07T08:26:21;3.10;84.40
11597;DHT22;5854;48.072;16.286;2023-12-07T08:28:48;3.10;84.60
11597;DHT22;5854;48.072;16.286;2023-12-07T08:31:16;3.00;78.80
11597;DHT22;5854;48.072;16.286;2023-12-07T08:33:43;2.90;77.10
11597;DHT22;5854;48.072;16.286;2023-12-07T08:36:10;3.00;80.50
11597;DHT22;5854;48.072;16.286;2023-12-07T08:38:37;3.00;82.70
11597;DHT22;5854;48.072;16.286;2023-12-07T08:41:05;3.10;85.90
11597;DHT22;5854;48.072;16.286;2023-12-07T08:43:33;3.00;74.60
11597;DHT22;5854;48.072;16.286;2023-12-07T08:46:01;3.20;83.00
11597;DHT22;5854;48.072;16.286;2023-12-07T08:48:29;3.10;78.20
11597;DHT22;5854;48.072;16.286;2023-12-07T08:50:56;3.00;73.90
11597;DHT22;5854;48.072;16.286;2023-12-07T08:53:23;3.10;74.20
11597;DHT22;5854;48.072;16.286;2023-12-07T08:55:52;3.20;75.90
11597;DHT22;5854;48.072;16.286;2023-12-07T08:58:20;3.10;73.30
11597;DHT22;5854;48.072;16.286;2023-12-07T09:00:49;3.20;77.60
11597;DHT22;5854;48.072;16.286;2023-12-07T09:03:17;3.20;78.20
11597;DHT22;5854;48.072;16.286;2023-12-07T09:05:44;3.30;75.80
11597;DHT22;5854;48.072;16.286;2023-12-07T09:08:12;3.40;77.40
11597;DHT22;5854;48.072;16.286;2023-12-07T09:10:39;3.30;73.90
11597;DHT22;5854;48.072;16.286;2023-12-07T09:13:07;3.20;72.60
11597;DHT22;5854;48.072;16.286;2023-12-07T09:15:34;3.30;74.10
11597;DHT22;5854;48.072;16.286;2023-12-07T09:18:04;3.40;77.80
11597;DHT22;5854;48.072;16.286;2023-12-07T09:20:31;3.30;75.30
11597;DHT22;5854;48.072;16.286;2023-12-07T09:22:59;3.40;79.50
11597;DHT22;5854;48.072;16.286;2023-12-07T09:25:26;3.30;69.20
11597;DHT22;5854;48.072;16.286;2023-12-07T09:27:55;3.40;75.90
11597;DHT22;5854;48.072;16.286;2023-12-07T09:30:23;3.30;71.80
11597;DHT22;5854;48.072;16.286;2023-12-07T09:32:51;3.30;70.90
11597;DHT22;5854;48.072;16.286;2023-12-07T09:35:20;3.30;75.60
11597;DHT22;5854;48.072;16.286;2023-12-07T09:37:48;3.30;75.00
11597;DHT22;5854;48.072;16.286;2023-12-07T09:40:16;3.40;78.80
11597;DHT22;5854;48.072;16.286;2023-12-07T09:42:45;3.60;77.70
11597;DHT22;5854;48.072;16.286;2023-12-07T09:45:12;3.60;74.20
11597;DHT22;5854;48.072;16.286;2023-12-07T09:47:42;3.70;74.90
11597;DHT22;5854;48.072;16.286;2023-12-07T09:50:10;3.70;73.00
11597;DHT22;5854;48.072;16.286;2023-12-07T09:52:40;3.70;72.50
11597;DHT22;5854;48.072;16.286;2023-12-07T09:55:09;3.70;70.80
11597;DHT22;5854;48.072;16.286;2023-12-07T09:57:37;3.60;73.70
11597;DHT22;5854;48.072;16.286;2023-12-07T10:00:05;3.60;70.90
11597;DHT22;5854;48.072;16.286;2023-12-07T10:02:37;3.60;75.10
11597;DHT22;5854;48.072;16.286;2023-12-07T10:05:06;3.50;74.30
11597;DHT22;5854;48.072;16.286;2023-12-07T10:07:38;3.50;75.90
11597;DHT22;5854;48.072;16.286;2023-12-07T10:10:08;3.40;75.20
11597;DHT22;5854;48.072;16.286;2023-12-07T10:12:45;3.40;72.90
11597;DHT22;5854;48.072;16.286;2023-12-07T10:15:14;3.50;74.70
11597;DHT22;5854;48.072;16.286;2023-12-07T10:17:46;3.50;75.50
11597;DHT22;5854;48.072;16.286;2023-12-07T10:20:16;3.40;75.30
11597;DHT22;5854;48.072;16.286;2023-12-07T10:22:45;3.40;77.20
11597;DHT22;5854;48.072;16.286;2023-12-07T10:25:13;3.50;76.90
11597;DHT22;5854;48.072;16.286;2023-12-07T10:27:41;3.60;72.70
11597;DHT22;5854;48.072;16.286;2023-12-07T10:30:10;3.60;76.30
11597;DHT22;5854;48.072;16.286;2023-12-07T10:32:38;3.60;73.40
11597;DHT22;5854;48.072;16.286;2023-12-07T10:35:07;3.70;70.70
11597;DHT22;5854;48.072;16.286;2023-12-07T10:37:35;3.70;69.70
11597;DHT22;5854;48.072;16.286;2023-12-07T10:40:05;3.70;71.70
11597;DHT22;5854;48.072;16.286;2023-12-07T10:42:34;3.80;72.00
11597;DHT22;5854;48.072;16.286;2023-12-07T10:45:05;3.80;75.40
11597;DHT22;5854;48.072;16.286;2023-12-07T10:47:36;3.70;72.90
11597;DHT22;5854;48.072;16.286;2023-12-07T10:50:06;3.80;76.10
11597;DHT22;5854;48.072;16.286;2023-12-07T10:52:44;3.70;76.50
11597;DHT22;5854;48.072;16.286;2023-12-07T10:55:16;3.70;70.10
11597;DHT22;5854;48.072;16.286;2023-12-07T10:57:48;3.80;77.30
11597;DHT22;5854;48.072;16.286;2023-12-07T11:00:18;3.70;73.10
11597;DHT22;5854;48.072;16.286;2023-12-07T11:02:50;3.80;73.60
11597;DHT22;5854;48.072;16.286;2023-12-07T11:05:19;3.70;74.70
11597;DHT22;5854;48.072;16.286;2023-12-07T11:07:52;3.80;72.40
11597;DHT22;5854;48.072;16.286;2023-12-07T11:10:30;3.80;71.90
11597;DHT22;5854;48.072;16.286;2023-12-07T11:13:11;3.70;71.70
11597;DHT22;5854;48.072;16.286;2023-12-07T11:15:41;3.80;73.10
11597;DHT22;5854;48.072;16.286;2023-12-07T11:18:09;3.70;72.80
11597;DHT22;5854;48.072;16.286;2023-12-07T11:20:42;3.70;77.40
11597;DHT22;5854;48.072;16.286;2023-12-07T11:23:11;3.70;74.00
11597;DHT22;5854;48.072;16.286;2023-12-07T11:25:43;3.70;76.30
11597;DHT22;5854;48.072;16.286;2023-12-07T11:28:11;3.70;75.70
11597;DHT22;5854;48.072;16.286;2023-12-07T11:30:42;3.60;74.90
11597;DHT22;5854;48.072;16.286;2023-12-07T11:33:10;3.60;72.60
11597;DHT22;5854;48.072;16.286;2023-12-07T11:36:05;3.60;74.30
11597;DHT22;5854;48.072;16.286;2023-12-07T11:38:33;3.60;77.00
11597;DHT22;5854;48.072;16.286;2023-12-07T11:41:04;3.60;72.50
11597;DHT22;5854;48.072;16.286;2023-12-07T11:43:41;3.60;71.90
11597;DHT22;5854;48.072;16.286;2023-12-07T11:46:12;3.70;74.80
11597;DHT22;5854;48.072;16.286;2023-12-07T11:48:47;3.60;72.30
11597;DHT22;5854;48.072;16.286;2023-12-07T11:51:16;3.60;76.70
11597;DHT22;5854;48.072;16.286;2023-12-07T11:53:43;3.60;69.90
11597;DHT22;5854;48.072;16.286;2023-12-07T11:56:12;3.70;72.30
11597;DHT22;5854;48.072;16.286;2023-12-07T11:58:39;3.70;75.20
11597;DHT22;5854;48.072;16.286;2023-12-07T12:01:06;3.60;72.90
11597;DHT22;5854;48.072;16.286;2023-12-07T12:03:34;3.60;72.70
11597;DHT22;5854;48.072;16.286;2023-12-07T12:06:04;3.60;78.20
11597;DHT22;5854;48.072;16.286;2023-12-07T12:08:33;3.60;71.70
11597;DHT22;5854;48.072;16.286;2023-12-07T12:11:01;3.60;72.60
11597;DHT22;5854;48.072;16.286;2023-12-07T12:13:30;3.60;73.90
11597;DHT22;5854;48.072;16.286;2023-12-07T12:16:00;3.60;76.10
11597;DHT22;5854;48.072;16.286;2023-12-07T12:18:27;3.60;74.10
11597;DHT22;5854;48.072;16.286;2023-12-07T12:20:55;3.60;80.50
11597;DHT22;5854;48.072;16.286;2023-12-07T12:23:23;3.60;74.90
11597;DHT22;5854;48.072;16.286;2023-12-07T12:25:51;3.50;74.10
11597;DHT22;5854;48.072;16.286;2023-12-07T12:28:19;3.70;80.60
11597;DHT22;5854;48.072;16.286;2023-12-07T12:30:51;3.70;74.90
11597;DHT22;5854;48.072;16.286;2023-12-07T12:33:18;3.60;75.40
11597;DHT22;5854;48.072;16.286;2023-12-07T12:35:46;3.60;77.10
11597;DHT22;5854;48.072;16.286;2023-12-07T12:38:13;3.60;77.30
11597;DHT22;5854;48.072;16.286;2023-12-07T12:40:41;3.50;79.30
11597;DHT22;5854;48.072;16.286;2023-12-07T12:43:08;3.50;77.50
11597;DHT22;5854;48.072;16.286;2023-12-07T12:45:36;3.50;72.60
11597;DHT22;5854;48.072;16.286;2023-12-07T12:48:05;3.50;76.50
11597;DHT22;5854;48.072;16.286;2023-12-07T12:50:38;3.50;78.50
11597;DHT22;5854;48.072;16.286;2023-12-07T12:53:08;3.50;74.30
11597;DHT22;5854;48.072;16.286;2023-12-07T12:55:37;3.50;72.90
11597;DHT22;5854;48.072;16.286;2023-12-07T12:58:07;3.50;79.80
11597;DHT22;5854;48.072;16.286;2023-12-07T13:00:38;3.50;78.70
11597;DHT22;5854;48.072;16.286;2023-12-07T13:03:08;3.40;76.30
11597;DHT22;5854;48.072;16.286;2023-12-07T13:05:37;3.50;78.50
11597;DHT22;5854;48.072;16.286;2023-12-07T13:08:05;3.50;78.90
11597;DHT22;5854;48.072;16.286;2023-12-07T13:10:33;3.50;75.90
11597;DHT22;5854;48.072;16.286;2023-12-07T13:13:00;3.50;74.20
11597;DHT22;5854;48.072;16.286;2023-12-07T13:15:28;3.50;76.60
11597;DHT22;5854;48.072;16.286;2023-12-07T13:17:56;3.50;75.00
11597;DHT22;5854;48.072;16.286;2023-12-07T13:20:25;3.50;79.10
11597;DHT22;5854;48.072;16.286;2023-12-07T13:22:52;3.40;79.40
11597;DHT22;5854;48.072;16.286;2023-12-07T13:25:21;3.40;78.40
11597;DHT22;5854;48.072;16.286;2023-12-07T13:27:48;3.40;79.90
11597;DHT22;5854;48.072;16.286;2023-12-07T13:30:15;3.40;76.90
11597;DHT22;5854;48.072;16.286;2023-12-07T13:32:43;3.30;75.90
11597;DHT22;5854;48.072;16.286;2023-12-07T13:35:10;3.40;78.60
11597;DHT22;5854;48.072;16.286;2023-12-07T13:37:39;3.40;77.60
11597;DHT22;5854;48.072;16.286;2023-12-07T13:40:08;3.40;79.10
11597;DHT22;5854;48.072;16.286;2023-12-07T13:42:36;3.40;80.30
11597;DHT22;5854;48.072;16.286;2023-12-07T13:45:04;3.30;80.30
11597;DHT22;5854;48.072;16.286;2023-12-07T13:47:34;3.30;79.50
11597;DHT22;5854;48.072;16.286;2023-12-07T13:50:03;3.20;80.10
11597;DHT22;5854;48.072;16.286;2023-12-07T13:52:31;3.20;76.50
11597;DHT22;5854;48.072;16.286;2023-12-07T13:55:00;3.10;77.60
11597;DHT22;5854;48.072;16.286;2023-12-07T14:00:04;3.10;76.80
11597;DHT22;5854;48.072;16.286;2023-12-07T14:02:38;3.20;78.20
11597;DHT22;5854;48.072;16.286;2023-12-07T14:05:07;3.20;79.70
11597;DHT22;5854;48.072;16.286;2023-12-07T14:07:35;3.10;77.00
11597;DHT22;5854;48.072;16.286;2023-12-07T14:10:04;3.10;79.20
11597;DHT22;5854;48.072;16.286;2023-12-07T14:12:32;3.00;77.90
11597;DHT22;5854;48.072;16.286;2023-12-07T14:14:59;3.10;79.40
11597;DHT22;5854;48.072;16.286;2023-12-07T14:17:26;3.00;78.90
11597;DHT22;5854;48.072;16.286;2023-12-07T14:19:57;3.00;79.80
11597;DHT22;5854;48.072;16.286;2023-12-07T14:22:25;3.00;81.30
11597;DHT22;5854;48.072;16.286;2023-12-07T14:24:52;3.00;80.10
11597;DHT22;5854;48.072;16.286;2023-12-07T14:27:21;3.10;82.50
11597;DHT22;5854;48.072;16.286;2023-12-07T14:29:48;3.00;79.20
11597;DHT22;5854;48.072;16.286;2023-12-07T14:32:15;3.00;82.20
11597;DHT22;5854;48.072;16.286;2023-12-07T14:34:43;3.00;82.40
11597;DHT22;5854;48.072;16.286;2023-12-07T14:37:11;2.90;82.90
11597;DHT22;5854;48.072;16.286;2023-12-07T14:39:39;2.90;81.20
11597;DHT22;5854;48.072;16.286;2023-12-07T14:42:07;2.90;82.20
11597;DHT22;5854;48.072;16.286;2023-12-07T14:44:36;3.00;83.50
11597;DHT22;5854;48.072;16.286;2023-12-07T14:47:04;2.90;81.10
11597;DHT22;5854;48.072;16.286;2023-12-07T14:49:32;2.90;83.80
11597;DHT22;5854;48.072;16.286;2023-12-07T14:52:00;2.90;86.30
11597;DHT22;5854;48.072;16.286;2023-12-07T14:54:27;2.90;83.90
11597;DHT22;5854;48.072;16.286;2023-12-07T14:56:56;2.80;85.00
11597;DHT22;5854;48.072;16.286;2023-12-07T14:59:23;2.80;85.70
11597;DHT22;5854;48.072;16.286;2023-12-07T15:01:52;2.90;88.40
11597;DHT22;5854;48.072;16.286;2023-12-07T15:04:20;2.70;82.40
11597;DHT22;5854;48.072;16.286;2023-12-07T15:06:47;2.70;79.60
11597;DHT22;5854;48.072;16.286;2023-12-07T15:09:14;2.70;83.70
11597;DHT22;5854;48.072;16.286;2023-12-07T15:11:41;2.70;82.80
11597;DHT22;5854;48.072;16.286;2023-12-07T15:14:09;2.60;80.00
11597;DHT22;5854;48.072;16.286;2023-12-07T15:16:37;2.80;86.40
11597;DHT22;5854;48.072;16.286;2023-12-07T15:19:05;2.80;85.50
11597;DHT22;5854;48.072;16.286;2023-12-07T15:21:33;2.70;83.30
11597;DHT22;5854;48.072;16.286;2023-12-07T15:24:00;2.60;78.30
11597;DHT22;5854;48.072;16.286;2023-12-07T15:26:28;2.60;80.00
11597;DHT22;5854;48.072;16.286;2023-12-07T15:28:56;2.60;81.70
11597;DHT22;5854;48.072;16.286;2023-12-07T15:31:23;2.80;86.70
11597;DHT22;5854;48.072;16.286;2023-12-07T15:33:50;2.70;82.80
11597;DHT22;5854;48.072;16.286;2023-12-07T15:36:19;2.80;85.40
11597;DHT22;5854;48.072;16.286;2023-12-07T15:38:46;2.70;82.40
11597;DHT22;5854;48.072;16.286;2023-12-07T15:41:14;2.70;78.10
11597;DHT22;5854;48.072;16.286;2023-12-07T15:43:41;2.80;82.20
11597;DHT22;5854;48.072;16.286;2023-12-07T15:46:09;2.70;80.00
11597;DHT22;5854;48.072;16.286;2023-12-07T15:48:36;2.90;85.90
11597;DHT22;5854;48.072;16.286;2023-12-07T15:51:03;2.90;81.60
11597;DHT22;5854;48.072;16.286;2023-12-07T15:53:32;3.00;87.50
11597;DHT22;5854;48.072;16.286;2023-12-07T15:55:59;3.10;89.00